EST,Max TemperatureF,Mean TemperatureF,Min TemperatureF,Max Dew PointF,MeanDew PointF,Min DewpointF,Max Humidity, Mean Humidity, Min Humidity, Max Sea Level PressureIn, Mean Sea Level PressureIn, Min Sea Level PressureIn, Max VisibilityMiles, Mean VisibilityMiles, Min VisibilityMiles, Max Wind SpeedMPH, Mean Wind SpeedMPH, Max Gust SpeedMPH,PrecipitationIn, CloudCover, Events, WindDirDegrees
2011-11-1,68,62,57,54,49,45,87,63,45,30.27,30.21,30.14,10,10,10,21,10,29,0.00,1,,33
2011-11-2,73,64,55,61,56,51,87,72,57,30.29,30.23,30.21,10,10,10,17,9,26,0.00,4,,25
2011-11-3,79,70,61,64,60,58,93,75,52,30.19,30.08,29.93,10,10,7,8,5,,0.00,6,,26
2011-11-4,66,58,51,63,51,43,92,74,48,30.00,29.89,29.82,10,9,2,20,10,24,0.03,5,Rain,301
2011-11-5,63,60,57,55,50,48,77,71,67,30.19,30.12,29.99,10,10,10,20,11,29,0.00,8,,12
2011-11-6,66,60,55,63,58,52,94,86,72,30.29,30.24,30.18,10,6,1,18,12,29,0.30,8,Rain,27
2011-11-7,70,67,64,65,63,62,100,90,81,30.27,30.23,30.17,10,7,2,15,10,23,0.13,7,Rain,24
2011-11-8,75,70,66,66,64,62,94,86,67,30.17,30.13,30.09,10,9,7,15,7,23,0.00,6,Rain,29
2011-11-9,73,64,55,60,56,52,93,75,49,30.10,30.03,29.98,10,10,8,13,5,20,0.01,0,,32
2011-11-10,79,64,48,60,50,31,94,69,41,30.03,29.94,29.85,10,9,1,20,5,31,0.00,1,,307
2011-11-11,61,50,39,40,33,28,86,56,31,30.25,30.17,30.03,10,10,10,17,11,25,0.00,0,,5
2011-11-12,68,52,36,49,42,32,90,72,45,30.34,30.29,30.25,10,10,7,9,1,,0.00,0,,36
2011-11-13,75,60,46,60,53,43,100,80,48,30.27,30.22,30.18,10,8,0,10,2,,0.00,1,Fog,120
2011-11-14,78,64,50,64,56,46,100,86,54,30.20,30.15,30.08,10,5,0,10,1,,0.00,1,Fog,148
2011-11-15,82,70,59,72,64,57,100,91,63,30.09,30.06,29.99,10,5,0,12,1,,0.02,5,Fog-Rain,162
2011-11-16,70,68,66,69,67,64,100,96,93,30.06,30.00,29.92,10,5,0,20,4,23,0.01,5,Fog,211
2011-11-17,,,,,,,,,,30.22,30.01,29.94,10,8,2,20,9,25,0.59,5,Rain-Thunderstorm,249
2011-11-18,,,,,,,,,,30.35,30.29,30.22,10,10,10,21,13,31,0.00,7,,44
2011-11-19,,,,,,,,,,30.32,30.27,30.24,10,5,0,12,2,,0.00,6,Fog-Rain,19
2011-11-20,,,,,,,,,,30.32,30.27,30.24,10,6,1,9,1,,0.00,3,,89
2011-11-21,,,,,,,,,,30.30,30.24,30.19,10,6,0,10,1,,0.00,1,Fog,67
2011-11-22,77,73,69,70,68,66,98,79,69,30.21,30.14,30.08,10,9,0,12,2,,1.01,6,Rain,151
2011-11-23,75,70,64,68,64,53,94,80,67,30.13,30.03,29.95,10,9,2,14,9,21,0.55,4,Rain-Thunderstorm,258
2011-11-24,64,62,59,51,49,48,70,61,55,30.32,30.25,30.13,10,10,10,17,9,25,0.00,1,,32
2011-11-25,73,66,60,61,58,53,91,74,49,30.32,30.27,30.23,10,10,10,14,8,21,0.00,4,,30
2011-11-26,77,70,62,60,56,54,82,61,47,30.28,30.23,30.19,10,10,10,14,6,22,0.00,4,,108
2011-11-27,77,72,66,61,60,58,83,65,52,30.17,30.07,29.99,10,10,10,17,5,22,0.00,5,,160
2011-11-28,80,66,53,65,59,52,94,79,48,29.98,29.90,29.81,10,9,2,18,10,29,0.24,5,Rain,234
2011-11-29,59,54,46,48,45,42,95,72,55,30.03,29.95,29.90,10,9,2,15,3,24,0.00,4,,271
2011-11-30,57,50,42,41,39,35,87,69,52,30.13,30.06,30.01,10,10,10,13,9,,0.00,1,,323